Latest Weather Observations for Kingscote

IDS60801

Issued at 9:35 am CST Monday 22 September 2014 (issued every 30 minutes, with the page automatically refreshed every 10 minutes)

About weather observations | Map of weather stations | Latest weather observations for SA | Other Formats
Station Details ID: 022841 Name: KINGSCOTE AERO Lat: -35.71 Lon: 137.52 Height: 6.23 m
Data from the previous 72 hours. | See also: Recent months at Kingscote
Date/Time
CST
Temp
°C
App
Temp
°C
Dew
Point
Rel
Hum
%
Delta-T
°C
Wind Press
QNH
hPa
Press
MSL
hPa
Rain
since 9 am
mm
Dir
 
Spd
km/h
Gust
km/h
Spd
kts
Gust
kts
22/09:30am 18.1 13.3 8.9 55 4.8 NNE 24 33 13 18 1024.8 1024.8 0.0
22/09:00am 17.9 13.6 7.9 52 5.1 NNE 20 32 11 17 1024.7 1024.7 0.2
22/08:30am 16.4 12.6 8.9 61 3.8 NNE 19 26 10 14 1024.8 1024.8 0.2
22/08:00am 13.9 13.3 10.3 79 1.9 N 4 11 2 6 1025.0 1025.0 0.2
22/07:58am 13.4 13.0 9.8 79 1.8 N 2 11 1 6 1025.0 1025.0 0.2
22/07:30am 8.4 7.9 8.0 97 0.2 CALM 0 0 0 0 1025.1 1025.1 0.2
22/07:00am 4.2 2.8 3.8 97 0.2 CALM 0 0 0 0 1025.1 1025.1 0.2
22/06:30am 1.6 -0.2 1.0 96 0.2 CALM 0 0 0 0 1025.1 1025.1 0.2
22/06:00am 1.6 -0.2 1.0 96 0.2 SSW 0 0 0 0 1025.0 1025.0 0.2
22/05:30am 1.8 0.0 1.2 96 0.2 CALM 0 0 0 0 1025.0 1025.0 0.2
22/05:00am 2.3 0.6 1.9 97 0.2 CALM 0 0 0 0 1024.8 1024.8 0.2
22/04:30am 1.9 0.1 1.3 96 0.2 CALM 0 0 0 0 1024.8 1024.8 0.2
22/04:00am 1.5 -0.3 0.9 96 0.2 CALM 0 0 0 0 1024.6 1024.6 0.2
22/03:30am 2.5 0.4 1.8 95 0.3 S 2 6 1 3 1024.5 1024.5 0.2
22/03:00am 3.0 0.3 2.4 96 0.2 S 6 9 3 5 1024.8 1024.8 0.2
22/02:30am 2.8 -0.2 2.2 96 0.2 SW 7 9 4 5 1025.3 1025.3 0.2
22/02:00am 2.7 -0.7 2.0 95 0.3 WSW 9 13 5 7 1025.5 1025.5 0.2
22/01:30am 2.6 0.9 1.6 93 0.4 CALM 0 0 0 0 1025.8 1025.8 0.2
22/01:00am 3.8 2.3 2.9 94 0.4 CALM 0 0 0 0 1026.0 1026.0 0.2
22/12:30am 4.5 3.1 3.8 95 0.3 CALM 0 0 0 0 1026.2 1026.2 0.2
22/12:00am 4.7 3.4 4.1 96 0.3 SW 0 0 0 0 1026.4 1026.4 0.2
 
Date/Time
CST
Temp
°C
App
Temp
°C
Dew
Point
Rel
Hum
%
Delta-T
°C
Wind Press
QNH
hPa
Press
MSL
hPa
Rain
since 9 am
mm
Dir
 
Spd
km/h
Gust
km/h
Spd
kts
Gust
kts
21/11:30pm 4.3 2.9 3.6 95 0.3 CALM 0 0 0 0 1026.5 1026.5 0.2
21/11:00pm 4.9 3.6 4.2 95 0.3 CALM 0 0 0 0 1026.6 1026.6 0.2
21/10:30pm 5.5 4.3 4.5 93 0.4 CALM 0 0 0 0 1026.7 1026.7 0.2
21/10:00pm 6.6 5.6 5.6 93 0.4 CALM 0 0 0 0 1026.8 1026.8 0.2
21/09:30pm 7.2 6.4 6.3 94 0.4 CALM 0 0 0 0 1026.9 1026.9 0.2
21/09:00pm 7.4 6.6 6.5 94 0.4 CALM 0 0 0 0 1027.1 1027.1 0.2
21/08:30pm 7.4 6.4 5.5 88 0.8 CALM 0 0 0 0 1027.0 1027.0 0.2
21/08:00pm 9.8 9.3 7.9 88 0.9 CALM 0 0 0 0 1027.0 1027.0 0.2
21/07:30pm 10.2 9.6 7.6 84 1.2 CALM 0 0 0 0 1027.3 1027.3 0.2
21/07:00pm 13.1 11.6 9.0 76 2.1 NE 7 9 4 5 1027.2 1027.2 0.2
21/06:30pm 14.1 14.0 9.3 73 2.4 CALM 0 0 0 0 1027.1 1027.1 0.2
21/06:00pm 14.9 13.3 8.8 67 3.1 E 7 9 4 5 1027.1 1027.1 0.2
21/05:30pm 16.1 13.5 9.5 65 3.4 ENE 13 15 7 8 1027.0 1027.0 0.2
21/05:00pm 17.2 14.4 10.1 63 3.8 E 15 17 8 9 1026.9 1026.9 0.2
21/04:30pm 18.4 15.7 10.5 60 4.2 E 15 17 8 9 1027.0 1027.0 0.2
21/04:00pm 19.2 16.9 10.5 57 4.7 ENE 13 17 7 9 1027.1 1027.1 0.2
21/03:30pm 19.9 16.0 5.2 38 7.1 NE 15 20 8 11 1027.2 1027.2 0.2
21/03:00pm 19.8 17.3 11.0 57 4.8 ENE 15 20 8 11 1027.3 1027.3 0.2
21/02:30pm 19.5 15.2 5.2 39 6.9 NE 17 20 9 11 1027.6 1027.6 0.2
21/02:00pm 19.5 15.4 6.3 42 6.6 NE 17 20 9 11 1027.8 1027.8 0.2
21/01:30pm 19.4 15.7 7.8 47 5.9 NE 17 22 9 12 1027.9 1027.9 0.2
21/01:00pm 19.8 16.3 8.8 49 5.8 NE 17 26 9 14 1028.1 1028.1 0.2
21/12:30pm 19.0 14.6 7.4 47 5.8 NE 20 22 11 12 1028.6 1028.6 0.2
21/12:00pm 18.7 15.0 6.5 45 6.0 NNE 15 22 8 12 1029.2 1029.2 0.2
21/11:30am 18.4 13.7 5.3 42 6.3 NE 19 26 10 14 1029.8 1029.8 0.2
21/11:00am 18.6 14.4 7.4 48 5.7 NE 19 24 10 13 1030.2 1030.2 0.2
21/10:30am 18.7 15.6 8.7 52 5.2 N 15 19 8 10 1030.4 1030.4 0.0
21/10:00am 17.3 15.5 10.9 66 3.4 NE 11 17 6 9 1030.6 1030.6 0.0
21/09:30am 16.2 14.7 10.5 69 3.0 ENE 9 13 5 7 1030.7 1030.7 0.0
21/09:00am 14.7 13.1 10.1 74 2.4 E 9 13 5 7 1030.8 1030.8 0.0
21/08:30am 11.8 11.6 9.2 84 1.3 CALM 0 0 0 0 1030.6 1030.6 0.0
21/08:00am 9.4 9.1 8.5 94 0.4 CALM 0 0 0 0 1030.5 1030.5 0.0
21/07:30am 6.9 6.1 6.5 97 0.2 CALM 0 0 0 0 1030.2 1030.2 0.0
21/07:00am 4.1 2.7 3.7 97 0.2 CALM 0 0 0 0 1030.0 1030.0 0.0
21/06:30am 2.5 0.8 1.9 96 0.2 CALM 0 0 0 0 1029.7 1029.7 0.0
21/06:00am 2.6 0.9 2.0 96 0.2 CALM 0 0 0 0 1029.4 1029.4 0.0
21/05:30am 2.8 1.2 2.2 96 0.2 CALM 0 0 0 0 1029.2 1029.2 0.0
21/05:00am 2.9 1.3 2.3 96 0.2 CALM 0 0 0 0 1028.8 1028.8 0.0
21/04:30am 3.2 1.6 2.6 96 0.2 CALM 0 0 0 0 1028.6 1028.6 0.0
21/04:00am 3.8 2.3 3.2 96 0.2 CALM 0 0 0 0 1028.5 1028.5 0.0
21/03:30am 3.9 2.5 3.3 96 0.2 CALM 0 0 0 0 1028.2 1028.2 0.0
21/03:00am 3.7 2.2 3.0 95 0.3 CALM 0 0 0 0 1028.2 1028.2 0.0
21/02:30am 3.3 1.7 2.3 93 0.4 CALM 0 0 0 0 1028.2 1028.2 0.0
21/02:00am 4.8 3.5 4.1 95 0.3 CALM 0 0 0 0 1028.4 1028.4 0.0
21/01:30am 5.4 4.2 4.7 95 0.3 CALM 0 0 0 0 1028.7 1028.7 0.0
21/01:00am 5.5 4.3 4.5 93 0.4 CALM 0 0 0 0 1028.7 1028.7 0.0
21/12:30am 5.6 4.4 4.4 92 0.5 CALM 0 0 0 0 1028.9 1028.9 0.0
21/12:00am 6.2 5.1 5.3 94 0.4 CALM 0 0 0 0 1028.9 1028.9 0.0
 
Date/Time
CST
Temp
°C
App
Temp
°C
Dew
Point
Rel
Hum
%
Delta-T
°C
Wind Press
QNH
hPa
Press
MSL
hPa
Rain
since 9 am
mm
Dir
 
Spd
km/h
Gust
km/h
Spd
kts
Gust
kts
20/11:30pm 6.1 5.0 4.9 92 0.5 CALM 0 0 0 0 1028.8 1028.8 0.0
20/11:00pm 6.3 4.4 5.1 92 0.5 S 4 7 2 4 1028.7 1028.7 0.0
20/10:30pm 6.4 3.5 4.7 89 0.7 WSW 9 11 5 6 1028.6 1028.6 0.0
20/10:00pm 6.8 4.3 5.0 88 0.8 S 7 7 4 4 1028.8 1028.8 0.0
20/09:30pm 8.3 6.1 5.4 82 1.3 S 6 6 3 3 1028.6 1028.6 0.0
20/09:00pm 9.8 7.0 6.9 82 1.4 SSE 11 13 6 7 1028.5 1028.5 0.0
20/08:30pm 9.8 7.4 6.9 82 1.4 SSE 9 13 5 7 1028.2 1028.2 0.0
20/08:00pm 10.9 7.8 7.2 78 1.8 ESE 13 17 7 9 1028.0 1028.0 0.0
20/07:30pm 11.3 9.4 8.9 85 1.2 ESE 9 13 5 7 1027.8 1027.8 0.0
20/07:00pm 11.9 9.2 8.9 82 1.5 SE 13 15 7 8 1027.3 1027.3 0.0
20/06:30pm 13.4 10.4 9.3 76 2.1 SE 15 17 8 9 1027.0 1027.0 0.0
20/06:00pm 15.1 11.3 5.9 54 4.4 E 15 20 8 11 1026.7 1026.7 0.0
20/05:30pm 16.6 12.4 7.3 54 4.6 E 19 24 10 13 1026.3 1026.3 0.0
20/05:00pm 17.6 13.2 7.4 51 5.1 E 20 26 11 14 1026.0 1026.0 0.0
20/04:30pm 18.2 13.0 7.3 49 5.5 ENE 24 30 13 16 1025.7 1025.7 0.0
20/04:00pm 18.6 12.8 6.4 45 6.1 E 26 32 14 17 1025.3 1025.3 0.0
20/03:30pm 19.2 14.1 6.0 42 6.5 ENE 22 28 12 15 1025.2 1025.2 0.0
20/03:00pm 18.7 14.2 6.2 44 6.1 ENE 19 24 10 13 1025.4 1025.4 0.0
20/02:30pm 18.6 14.3 5.1 41 6.5 ENE 17 24 9 13 1025.4 1025.4 0.0
20/02:00pm 18.6 14.4 7.4 48 5.7 ENE 19 26 10 14 1025.4 1025.4 0.0
20/01:30pm 18.8 15.3 8.7 52 5.2 NE 17 22 9 12 1025.5 1025.5 0.0
20/01:00pm 18.5 13.8 6.0 44 6.2 NE 20 26 11 14 1025.6 1025.6 0.0
20/12:30pm 18.1 13.8 5.3 43 6.2 NE 17 24 9 13 1025.8 1025.8 0.0
20/12:00pm 18.0 13.9 8.0 52 5.1 ENE 19 26 10 14 1026.0 1026.0 0.0
20/11:30am 18.0 14.0 6.8 48 5.5 ENE 17 24 9 13 1026.4 1026.4 0.0
20/11:00am 17.6 13.1 6.2 47 5.6 ENE 19 26 10 14 1026.4 1026.4 0.0
20/10:30am 17.2 13.0 7.5 53 4.8 ENE 19 24 10 13 1026.5 1026.5 0.0
20/10:00am 16.4 12.7 8.1 58 4.2 E 17 20 9 11 1027.0 1027.0 0.0
20/09:30am 15.6 12.5 8.8 64 3.4 ENE 15 20 8 11 1027.3 1027.3 0.0
20/09:00am 14.9 13.1 9.3 69 2.9 E 9 15 5 8 1027.2 1027.2 0.2
20/08:30am 12.5 12.2 8.8 78 1.8 CALM 0 0 0 0 1026.8 1026.8 0.2
20/08:00am 8.9 8.4 7.8 93 0.5 CALM 0 0 0 0 1026.5 1026.5 0.2
20/07:30am 5.9 4.9 5.5 97 0.2 CALM 0 0 0 0 1026.2 1026.2 0.2
20/07:00am 2.9 1.3 2.5 97 0.2 CALM 0 0 0 0 1025.8 1025.8 0.2
20/06:30am 1.3 -0.5 0.9 97 0.1 CALM 0 0 0 0 1025.5 1025.5 0.2
20/06:00am 2.0 0.3 1.6 97 0.2 CALM 0 0 0 0 1025.1 1025.1 0.2
20/05:30am 2.2 0.5 1.8 97 0.2 CALM 0 0 0 0 1024.8 1024.8 0.2
20/05:00am 2.0 0.3 1.6 97 0.2 CALM 0 0 0 0 1024.4 1024.4 0.2
20/04:30am 1.9 0.1 1.3 96 0.2 CALM 0 0 0 0 1023.9 1023.9 0.2
20/04:00am 2.5 0.8 1.9 96 0.2 CALM 0 0 0 0 1023.7 1023.7 0.2
20/03:30am 2.3 0.6 1.6 95 0.3 CALM 0 0 0 0 1023.6 1023.6 0.2
20/03:00am 3.0 1.4 2.4 96 0.2 CALM 0 0 0 0 1023.6 1023.6 0.2
20/02:30am 3.5 2.0 2.9 96 0.2 CALM 0 0 0 0 1023.9 1023.9 0.2
20/02:00am 3.3 1.7 2.6 95 0.3 CALM 0 0 0 0 1024.1 1024.1 0.2
20/01:30am 4.1 2.7 3.4 95 0.3 CALM 0 0 0 0 1024.2 1024.2 0.2
20/01:00am 4.4 3.0 3.5 94 0.4 CALM 0 0 0 0 1024.3 1024.3 0.2
20/12:30am 5.1 3.8 4.2 94 0.4 CALM 0 0 0 0 1024.2 1024.2 0.2
20/12:00am 5.9 4.8 5.2 95 0.3 CALM 0 0 0 0 1024.2 1024.2 0.2
 
Date/Time
CST
Temp
°C
App
Temp
°C
Dew
Point
Rel
Hum
%
Delta-T
°C
Wind Press
QNH
hPa
Press
MSL
hPa
Rain
since 9 am
mm
Dir
 
Spd
km/h
Gust
km/h
Spd
kts
Gust
kts
19/11:30pm 5.7 4.6 5.0 95 0.3 CALM 0 0 0 0 1024.1 1024.1 0.2
19/11:00pm 5.6 4.4 4.6 93 0.4 CALM 0 0 0 0 1024.2 1024.2 0.2
19/10:30pm 5.3 2.7 4.1 92 0.5 S 7 7 4 4 1024.4 1024.4 0.2
19/10:00pm 6.3 3.4 4.6 89 0.7 SSE 9 11 5 6 1024.6 1024.6 0.2
19/09:30pm 7.4 5.1 5.7 89 0.8 SSE 7 9 4 5 1024.6 1024.6 0.2
19/09:00pm 8.5 5.6 6.6 88 0.9 SE 11 11 6 6 1024.8 1024.8 0.2
19/08:30pm 8.9 6.4 6.7 86 1.0 SSE 9 9 5 5 1024.7 1024.7 0.2
19/08:00pm 9.4 7.3 6.8 84 1.2 SSE 7 9 4 5 1024.6 1024.6 0.2
19/07:30pm 9.8 7.4 6.9 82 1.4 SE 9 13 5 7 1024.5 1024.5 0.2
19/07:00pm 10.7 8.4 7.4 80 1.6 E 9 13 5 7 1024.2 1024.2 0.2
19/06:30pm 11.4 8.3 7.3 76 2.0 E 13 17 7 9 1024.0 1024.0 0.2
19/06:00pm 12.4 9.8 7.9 74 2.2 ENE 11 15 6 8 1023.8 1023.8 0.2
19/05:30pm 14.2 11.2 6.1 58 3.9 ENE 11 17 6 9 1023.6 1023.6 0.2
19/05:00pm 14.9 11.3 5.1 52 4.6 E 13 17 7 9 1023.7 1023.7 0.2
19/04:30pm 15.4 11.9 5.3 51 4.8 E 13 19 7 10 1023.5 1023.5 0.2
19/04:00pm 15.7 11.8 5.3 50 4.9 E 15 19 8 10 1023.5 1023.5 0.2
19/03:30pm 15.7 11.4 5.3 50 4.9 E 17 22 9 12 1023.7 1023.7 0.2
19/03:00pm 16.3 12.0 5.3 48 5.2 E 17 20 9 11 1023.8 1023.8 0.2
19/02:30pm 16.2 11.6 5.5 49 5.1 ENE 19 22 10 12 1024.1 1024.1 0.2
19/02:00pm 15.9 12.6 4.3 46 5.4 NNE 11 19 6 10 1024.4 1024.4 0.2
19/01:30pm 16.1 12.6 7.3 56 4.3 NE 15 24 8 13 1024.6 1024.6 0.2
19/01:00pm 16.0 11.9 7.7 58 4.2 ENE 19 26 10 14 1024.9 1024.9 0.2
19/12:30pm 15.9 12.3 8.2 60 3.9 E 17 24 9 13 1025.2 1025.2 0.2
19/12:00pm 15.3 11.3 8.3 63 3.5 NE 19 26 10 14 1025.5 1025.5 0.2
19/11:30am 15.0 10.6 7.3 60 3.8 ENE 20 28 11 15 1025.8 1025.8 0.2
19/11:00am 14.9 10.0 7.0 59 3.9 ENE 22 30 12 16 1025.9 1025.9 0.2
19/10:30am 14.2 9.7 7.0 62 3.5 NE 20 28 11 15 1026.2 1026.2 0.0
19/10:00am 14.3 9.6 7.6 64 3.3 ENE 22 30 12 16 1026.4 1026.4 0.0

Other Formats:

Comma delimited format used in spreadsheet applications
http://www.bom.gov.au/fwo/IDS60801/IDS60801.95807.axf

JavaScript Object Notation format (JSON) in row-major order
http://www.bom.gov.au/fwo/IDS60801/IDS60801.95807.json